Alvord, Texas
Current Conditions -  °F | °C
As of 5:15 PM on Friday 19 Dec 2014 (Local Time) from KLUD Reporting Station
Overcast Overcast  
Wind Chill:   Ceiling: 1100
Heat Index:   Visibility: 10mi
Dew Point:   Wind: 7mph
Humidity: 89%   Direction: 360°N
Pressure: 30.18"   Gusts: NA
Location:  33.36°N, 97.69°W
Report Text: KLUD 192315Z AUTO 36006KT 10SM OVC011 08/06 A3018 RMK AO2 T00750058
Loading
Personal Weather Stations






























Interactive Weather Map New forecast layout! Learn more

10-Day Weather Forecast

Advertisements
Track Severe Weather on mobile